Time;durP1;ratioP1;P1;durP2;ratioP2;P2;SDS_P1;SDS_P2;PMS_P1;PMS_P2;Temp;Humidity;BMP_temperature;BMP_pressure;BME280_temperature;BME280_humidity;BME280_pressure;Samples;Min_cycle;Max_cycle;Signal;HPM_P1;HPM_P2
2023/02/23 00:00:19;;;;;;;54.17;40.63;;;;;;;;;;4962940;28;20545;-78
2023/02/23 00:02:46;;;;;;;62.47;41.73;;;;;;;;;;4960898;28;20464;-79
2023/02/23 00:05:12;;;;;;;59.53;42.73;;;;;;;;;;4955808;28;20461;-80
2023/02/23 00:07:38;;;;;;;68.07;45.73;;;;;;;;;;4950849;28;20445;-80
2023/02/23 00:10:04;;;;;;;60.33;43.77;;;;;;;;;;4954861;28;20454;-79
2023/02/23 00:12:30;;;;;;;65.60;42.67;;;;;;;;;;4951754;28;20453;-79
2023/02/23 00:14:58;;;;;;;68.33;44.90;;;;;;;;;;4948775;28;20456;-78
2023/02/23 00:17:24;;;;;;;61.50;41.67;;;;;;;;;;4951329;28;20527;-80
2023/02/23 00:19:54;;;;;;;62.13;43.40;;;;;;;;;;4948904;28;21251;-79
2023/02/23 00:22:22;;;;;;;73.23;45.60;;;;;;;;;;4946797;28;20468;-79
2023/02/23 00:24:49;;;;;;;70.57;47.50;;;;;;;;;;4947888;28;20863;-78
2023/02/23 00:27:19;;;;;;;70.27;47.43;;;;;;;;;;4954583;28;20847;-80
2023/02/23 00:29:48;;;;;;;64.27;46.57;;;;;;;;;;4959128;28;20499;-79
2023/02/23 00:32:18;;;;;;;71.10;46.57;;;;;;;;;;4963856;28;20449;-79
2023/02/23 00:34:48;;;;;;;69.57;48.23;;;;;;;;;;4950676;28;20539;-78
2023/02/23 00:37:16;;;;;;;71.90;48.10;;;;;;;;;;4972742;28;20960;-79
2023/02/23 00:39:42;;;;;;;66.97;45.23;;;;;;;;;;4962168;28;20468;-80
2023/02/23 00:42:09;;;;;;;64.90;42.87;;;;;;;;;;4966587;28;20468;-80
2023/02/23 00:44:39;;;;;;;70.37;46.50;;;;;;;;;;4969027;28;20465;-80
2023/02/23 00:47:05;;;;;;;72.30;46.20;;;;;;;;;;4964549;28;20971;-79
2023/02/23 00:49:32;;;;;;;64.20;46.33;;;;;;;;;;4965004;28;20468;-81
2023/02/23 00:51:58;;;;;;;70.27;46.70;;;;;;;;;;4967780;28;20449;-79
2023/02/23 00:54:25;;;;;;;67.60;44.73;;;;;;;;;;4964926;28;20518;-79
2023/02/23 00:56:51;;;;;;;68.37;45.43;;;;;;;;;;4964730;28;20520;-80
2023/02/23 00:59:17;;;;;;;64.60;45.80;;;;;;;;;;4965683;28;20477;-78
2023/02/23 01:01:44;;;;;;;64.73;45.77;;;;;;;;;;4963743;28;20464;-79
2023/02/23 01:04:11;;;;;;;65.77;46.90;;;;;;;;;;4958560;28;20540;-80
2023/02/23 01:06:37;;;;;;;74.43;46.67;;;;;;;;;;4964129;28;21034;-80
2023/02/23 01:09:07;;;;;;;72.63;48.17;;;;;;;;;;4967954;28;20498;-81
2023/02/23 01:11:34;;;;;;;70.30;46.90;;;;;;;;;;4968860;28;20420;-78
2023/02/23 01:14:04;;;;;;;78.00;49.83;;;;;;;;;;4966988;28;20471;-79
2023/02/23 01:16:31;;;;;;;76.23;50.10;;;;;;;;;;4978356;28;20441;-80
2023/02/23 01:18:58;;;;;;;73.80;49.27;;;;;;;;;;4974966;28;20480;-80
2023/02/23 01:21:27;;;;;;;79.00;50.00;;;;;;;;;;4974538;28;20471;-79
2023/02/23 01:23:53;;;;;;;77.83;51.10;;;;;;;;;;4970417;28;21097;-79
2023/02/23 01:26:20;;;;;;;74.97;49.10;;;;;;;;;;4971811;28;21133;-80
2023/02/23 01:28:55;;;;;;;74.33;47.77;;;;;;;;;;4965522;28;20467;-79
2023/02/23 01:31:21;;;;;;;72.50;47.77;;;;;;;;;;4964604;28;20442;-79
2023/02/23 01:33:48;;;;;;;81.00;52.03;;;;;;;;;;4942628;28;20457;-79
2023/02/23 01:36:14;;;;;;;77.07;49.83;;;;;;;;;;4958149;28;20571;-78
2023/02/23 01:38:40;;;;;;;73.53;47.83;;;;;;;;;;4956441;28;20461;-79
2023/02/23 01:41:07;;;;;;;78.27;50.37;;;;;;;;;;4978091;28;20445;-80
2023/02/23 01:43:33;;;;;;;90.47;52.67;;;;;;;;;;4977147;28;20437;-79
2023/02/23 01:45:59;;;;;;;85.73;52.27;;;;;;;;;;4980300;28;20448;-77
2023/02/23 01:48:37;;;;;;;84.50;51.27;;;;;;;;;;4975258;28;20413;-78
2023/02/23 01:51:05;;;;;;;85.50;52.07;;;;;;;;;;4974667;28;20565;-81
2023/02/23 01:53:33;;;;;;;81.30;49.53;;;;;;;;;;4975852;28;20477;-79
2023/02/23 01:56:10;;;;;;;69.70;44.93;;;;;;;;;;4971848;28;20460;-79
2023/02/23 01:58:37;;;;;;;71.03;50.50;;;;;;;;;;4973725;28;20443;-79
2023/02/23 02:01:03;;;;;;;74.37;49.17;;;;;;;;;;4970943;28;20465;-79
2023/02/23 02:03:42;;;;;;;80.40;49.07;;;;;;;;;;4971559;28;20436;-78
2023/02/23 02:06:09;;;;;;;69.70;46.80;;;;;;;;;;4970659;28;20425;-78
2023/02/23 02:08:43;;;;;;;80.40;51.10;;;;;;;;;;4970437;28;20444;-78
2023/02/23 02:11:24;;;;;;;76.53;46.83;;;;;;;;;;4968350;28;20490;-79
2023/02/23 02:13:52;;;;;;;79.40;48.37;;;;;;;;;;4969701;28;21276;-78
2023/02/23 02:16:19;;;;;;;80.70;50.80;;;;;;;;;;4965486;28;20465;-78
2023/02/23 02:19:07;;;;;;;87.73;52.30;;;;;;;;;;4954131;28;20432;-78
2023/02/23 02:21:56;;;;;;;77.03;50.13;;;;;;;;;;4968244;28;20527;-78
2023/02/23 02:24:40;;;;;;;74.67;51.33;;;;;;;;;;4969875;28;20967;-78
2023/02/23 02:27:26;;;;;;;72.00;46.00;;;;;;;;;;4967242;28;21488;-78
2023/02/23 02:30:21;;;;;;;78.53;48.47;;;;;;;;;;4971257;28;20437;-79
2023/02/23 02:33:04;;;;;;;77.40;50.67;;;;;;;;;;4897278;28;20484;-78
2023/02/23 02:35:52;;;;;;;78.57;47.07;;;;;;;;;;4972031;28;20463;-78
2023/02/23 02:38:21;;;;;;;81.30;50.57;;;;;;;;;;4967692;28;20449;-77
2023/02/23 02:41:03;;;;;;;78.57;50.00;;;;;;;;;;4972069;28;20566;-77
2023/02/23 02:43:41;;;;;;;81.23;50.50;;;;;;;;;;4972106;28;20424;-79
2023/02/23 02:46:16;;;;;;;82.10;51.73;;;;;;;;;;4970134;28;20440;-78
2023/02/23 02:49:01;;;;;;;86.80;51.10;;;;;;;;;;4969460;28;20408;-79
2023/02/23 02:51:41;;;;;;;83.87;51.20;;;;;;;;;;4968181;28;20441;-79
2023/02/23 02:54:16;;;;;;;91.10;51.17;;;;;;;;;;4973579;28;20777;-78
2023/02/23 02:56:43;;;;;;;92.37;53.43;;;;;;;;;;4965573;28;20799;-78
2023/02/23 04:18:07;;;;;;;86.50;49.20;;;;;;;;;;4971567;28;20886;-80
2023/02/23 04:20:34;;;;;;;78.33;46.80;;;;;;;;;;4971025;28;20464;-79
2023/02/23 04:23:00;;;;;;;82.73;48.70;;;;;;;;;;4968424;28;20474;-80
2023/02/23 04:25:27;;;;;;;81.77;45.80;;;;;;;;;;4973014;28;20464;-79
2023/02/23 04:27:53;;;;;;;84.93;47.10;;;;;;;;;;4967807;28;20883;-78
2023/02/23 04:30:19;;;;;;;88.03;48.87;;;;;;;;;;4972722;28;20499;-78
2023/02/23 04:32:45;;;;;;;82.97;47.63;;;;;;;;;;4979463;28;20444;-77
2023/02/23 04:35:12;;;;;;;89.80;47.20;;;;;;;;;;4974546;28;20816;-79
2023/02/23 04:37:38;;;;;;;87.57;47.57;;;;;;;;;;4972224;28;20522;-78
2023/02/23 04:40:05;;;;;;;85.67;49.70;;;;;;;;;;4973696;28;20497;-79
2023/02/23 04:42:31;;;;;;;87.37;46.93;;;;;;;;;;4971090;28;20472;-79
2023/02/23 04:44:58;;;;;;;97.27;46.10;;;;;;;;;;4974041;28;20518;-79
2023/02/23 04:47:24;;;;;;;86.60;48.30;;;;;;;;;;4953624;28;20838;-80
2023/02/23 04:49:50;;;;;;;82.83;45.10;;;;;;;;;;4976036;28;20916;-80
2023/02/23 04:52:16;;;;;;;94.37;49.70;;;;;;;;;;4971412;28;20479;-79
2023/02/23 04:54:42;;;;;;;87.83;47.80;;;;;;;;;;4951172;28;20840;-80
2023/02/23 04:57:09;;;;;;;88.30;48.73;;;;;;;;;;4969159;28;20461;-81
2023/02/23 04:59:35;;;;;;;86.97;45.80;;;;;;;;;;4970889;28;20468;-81
2023/02/23 05:02:05;;;;;;;84.53;46.00;;;;;;;;;;4965591;28;20542;-80
2023/02/23 05:04:33;;;;;;;84.07;46.37;;;;;;;;;;4952248;28;20544;-78
2023/02/23 05:07:02;;;;;;;78.07;47.33;;;;;;;;;;4952719;28;20459;-80
2023/02/23 05:09:29;;;;;;;106.40;49.30;;;;;;;;;;4971145;28;20865;-78
2023/02/23 05:11:55;;;;;;;101.47;48.73;;;;;;;;;;4952965;28;20481;-79
2023/02/23 05:14:21;;;;;;;91.77;48.30;;;;;;;;;;4972343;28;20437;-80
2023/02/23 05:16:48;;;;;;;92.13;48.40;;;;;;;;;;4969748;28;21237;-78
2023/02/23 05:19:14;;;;;;;86.43;46.30;;;;;;;;;;4975160;28;20452;-79
2023/02/23 05:21:40;;;;;;;93.60;48.97;;;;;;;;;;4972408;28;20456;-79
2023/02/23 05:24:07;;;;;;;91.23;50.90;;;;;;;;;;4973343;28;20409;-79
2023/02/23 05:26:33;;;;;;;98.33;51.43;;;;;;;;;;4971646;28;20436;-81
2023/02/23 05:28:59;;;;;;;95.63;49.43;;;;;;;;;;4972362;28;20424;-79
2023/02/23 05:31:26;;;;;;;88.40;48.80;;;;;;;;;;4969866;28;20457;-79
2023/02/23 05:33:52;;;;;;;89.13;48.33;;;;;;;;;;4970930;28;20433;-79
2023/02/23 05:36:19;;;;;;;85.23;47.27;;;;;;;;;;4967397;28;20671;-80
2023/02/23 05:38:46;;;;;;;74.27;42.27;;;;;;;;;;4973437;28;20428;-80
2023/02/23 05:41:13;;;;;;;91.00;48.73;;;;;;;;;;4973442;28;20476;-79
2023/02/23 05:43:39;;;;;;;95.77;54.90;;;;;;;;;;4956974;28;20444;-79
2023/02/23 05:46:10;;;;;;;100.67;54.97;;;;;;;;;;4952216;28;20962;-78
2023/02/23 05:48:36;;;;;;;84.57;50.00;;;;;;;;;;4943935;28;20943;-79
2023/02/23 05:51:07;;;;;;;107.80;52.50;;;;;;;;;;4971582;28;20962;-79
2023/02/23 05:53:33;;;;;;;95.40;51.10;;;;;;;;;;4981962;28;21086;-79
2023/02/23 05:56:00;;;;;;;78.83;47.53;;;;;;;;;;4977819;28;20983;-81
2023/02/23 05:58:27;;;;;;;87.23;48.57;;;;;;;;;;4970886;28;20777;-80
2023/02/23 06:00:53;;;;;;;92.87;48.90;;;;;;;;;;4972377;28;20879;-81
2023/02/23 06:03:20;;;;;;;95.27;49.23;;;;;;;;;;4949763;28;20444;-80
2023/02/23 06:05:52;;;;;;;95.50;49.73;;;;;;;;;;4968597;28;20443;-80
2023/02/23 06:08:18;;;;;;;92.90;50.30;;;;;;;;;;4964448;28;20434;-80
2023/02/23 06:10:44;;;;;;;93.40;47.73;;;;;;;;;;4966334;28;20421;-80
2023/02/23 06:13:11;;;;;;;92.63;49.47;;;;;;;;;;4970321;28;20437;-81
2023/02/23 06:15:37;;;;;;;93.83;49.47;;;;;;;;;;4971330;28;20421;-80
2023/02/23 06:18:03;;;;;;;80.50;45.00;;;;;;;;;;4972912;28;20491;-81
2023/02/23 06:20:30;;;;;;;83.87;47.77;;;;;;;;;;4970299;28;20512;-78
2023/02/23 06:22:56;;;;;;;101.97;50.10;;;;;;;;;;4975775;28;20460;-80
2023/02/23 06:25:22;;;;;;;93.27;47.90;;;;;;;;;;4967053;28;20884;-79
2023/02/23 06:27:48;;;;;;;98.77;51.43;;;;;;;;;;4972492;28;20444;-80
2023/02/23 06:30:14;;;;;;;94.10;50.33;;;;;;;;;;4977018;28;20437;-80
2023/02/23 06:32:40;;;;;;;88.93;45.90;;;;;;;;;;4966305;28;20483;-77
2023/02/23 06:35:07;;;;;;;99.67;49.63;;;;;;;;;;4980988;28;20559;-78
2023/02/23 06:37:33;;;;;;;82.63;45.80;;;;;;;;;;4985615;28;20441;-76
2023/02/23 06:39:59;;;;;;;89.97;48.77;;;;;;;;;;4958021;28;20621;-76
2023/02/23 06:42:25;;;;;;;100.80;51.70;;;;;;;;;;4954042;28;20440;-77
2023/02/23 06:44:51;;;;;;;87.50;47.00;;;;;;;;;;4968646;28;20441;-78
2023/02/23 06:47:18;;;;;;;100.87;51.77;;;;;;;;;;4954114;28;20467;-76
2023/02/23 06:49:44;;;;;;;84.97;45.97;;;;;;;;;;4950990;28;20445;-78
2023/02/23 06:52:12;;;;;;;86.67;48.73;;;;;;;;;;4953534;28;20935;-77
2023/02/23 06:54:38;;;;;;;89.97;50.30;;;;;;;;;;4965691;28;20448;-78
2023/02/23 06:57:05;;;;;;;95.70;49.17;;;;;;;;;;4959895;28;20448;-79
2023/02/23 06:59:31;;;;;;;84.23;43.83;;;;;;;;;;4969264;28;20461;-80
2023/02/23 07:01:57;;;;;;;96.00;52.43;;;;;;;;;;4969946;28;20968;-77
2023/02/23 07:04:23;;;;;;;92.30;50.17;;;;;;;;;;4971795;28;20437;-78
2023/02/23 07:06:49;;;;;;;106.07;51.27;;;;;;;;;;4970446;28;20959;-77
2023/02/23 07:09:15;;;;;;;92.30;48.40;;;;;;;;;;4954040;28;21125;-79
2023/02/23 07:11:43;;;;;;;86.60;48.73;;;;;;;;;;4967763;28;20455;-78
2023/02/23 07:14:10;;;;;;;98.23;48.90;;;;;;;;;;4942786;28;20413;-76
2023/02/23 07:16:38;;;;;;;85.70;39.17;;;;;;;;;;4971318;28;20455;-77
2023/02/23 07:19:04;;;;;;;93.57;48.77;;;;;;;;;;4970628;28;20429;-76
2023/02/23 07:21:33;;;;;;;90.20;48.77;;;;;;;;;;4965110;28;20539;-78
2023/02/23 07:24:03;;;;;;;86.30;46.30;;;;;;;;;;4971480;28;20646;-79
2023/02/23 07:26:29;;;;;;;79.87;45.27;;;;;;;;;;4970376;28;20552;-77
2023/02/23 07:28:55;;;;;;;82.83;48.20;;;;;;;;;;4968084;28;20626;-78
2023/02/23 07:31:22;;;;;;;86.27;49.13;;;;;;;;;;4967287;28;20441;-80
2023/02/23 07:33:48;;;;;;;89.70;48.70;;;;;;;;;;4956671;28;20416;-79
2023/02/23 07:36:14;;;;;;;81.43;45.00;;;;;;;;;;4952833;28;20532;-78
2023/02/23 07:38:40;;;;;;;76.43;47.23;;;;;;;;;;4956972;28;20417;-81
2023/02/23 07:41:06;;;;;;;75.97;46.07;;;;;;;;;;4968289;28;20491;-78
2023/02/23 07:43:32;;;;;;;84.37;46.73;;;;;;;;;;4966900;28;20445;-77
2023/02/23 07:46:02;;;;;;;78.47;45.60;;;;;;;;;;4968232;28;20855;-79
2023/02/23 07:48:28;;;;;;;80.93;47.30;;;;;;;;;;4955102;28;20587;-78
2023/02/23 07:50:54;;;;;;;81.70;44.23;;;;;;;;;;4956499;28;20539;-79
2023/02/23 07:53:20;;;;;;;75.57;45.27;;;;;;;;;;4956683;28;20480;-78
2023/02/23 07:55:46;;;;;;;78.53;44.90;;;;;;;;;;4972813;28;20888;-79
2023/02/23 07:58:12;;;;;;;68.00;41.13;;;;;;;;;;4973652;28;21013;-78
2023/02/23 08:00:39;;;;;;;73.17;42.83;;;;;;;;;;4956227;28;20504;-78
2023/02/23 08:03:05;;;;;;;80.30;44.57;;;;;;;;;;4962496;28;20511;-79
2023/02/23 08:05:32;;;;;;;82.93;44.00;;;;;;;;;;4955483;28;20460;-76
2023/02/23 08:07:58;;;;;;;72.30;41.70;;;;;;;;;;4967686;28;20452;-78
2023/02/23 08:10:25;;;;;;;75.93;44.47;;;;;;;;;;4941497;28;20460;-77
2023/02/23 08:12:51;;;;;;;77.23;44.83;;;;;;;;;;4965914;28;20496;-78
2023/02/23 08:15:17;;;;;;;87.33;44.37;;;;;;;;;;4931953;28;20519;-78
2023/02/23 08:17:43;;;;;;;83.77;43.20;;;;;;;;;;4969840;28;20513;-78
2023/02/23 08:20:10;;;;;;;91.00;43.07;;;;;;;;;;4964118;28;20500;-78
2023/02/23 08:22:36;;;;;;;92.90;41.00;;;;;;;;;;4954487;28;20436;-78
2023/02/23 08:25:04;;;;;;;88.77;44.47;;;;;;;;;;4967742;28;20460;-77
2023/02/23 08:27:30;;;;;;;89.33;45.40;;;;;;;;;;4966202;28;20445;-79
2023/02/23 08:29:56;;;;;;;90.53;44.20;;;;;;;;;;4961871;28;20519;-79
2023/02/23 08:32:25;;;;;;;94.63;40.80;;;;;;;;;;4953364;28;20449;-77
2023/02/23 08:34:52;;;;;;;76.47;37.60;;;;;;;;;;4964049;28;20473;-77
2023/02/23 08:37:18;;;;;;;88.57;39.60;;;;;;;;;;4938001;28;20526;-75
2023/02/23 08:39:44;;;;;;;86.10;40.10;;;;;;;;;;4961823;28;20461;-77
2023/02/23 08:42:10;;;;;;;73.53;34.27;;;;;;;;;;4952110;28;20448;-77
2023/02/23 08:44:36;;;;;;;88.67;38.17;;;;;;;;;;4968628;28;20963;-76
2023/02/23 08:47:03;;;;;;;79.18;36.42;;;;;;;;;;4961432;28;20456;-78
2023/02/23 08:49:31;;;;;;;81.63;38.27;;;;;;;;;;4950083;28;20213;-78
2023/02/23 08:51:57;;;;;;;68.70;36.23;;;;;;;;;;4969128;28;20536;-79
2023/02/23 08:54:23;;;;;;;76.90;38.67;;;;;;;;;;4965547;28;21173;-78
2023/02/23 08:56:49;;;;;;;66.23;34.00;;;;;;;;;;4966442;28;20512;-79
2023/02/23 08:59:15;;;;;;;66.30;33.57;;;;;;;;;;4965226;28;20612;-79
2023/02/23 09:01:41;;;;;;;72.30;34.63;;;;;;;;;;4965721;28;20446;-79
2023/02/23 09:04:07;;;;;;;67.27;33.50;;;;;;;;;;4965728;28;20448;-77
2023/02/23 09:06:34;;;;;;;66.23;33.80;;;;;;;;;;4969946;28;20557;-79
2023/02/23 09:09:00;;;;;;;65.17;32.30;;;;;;;;;;4945528;28;21121;-78
2023/02/23 09:11:26;;;;;;;64.33;34.10;;;;;;;;;;4943245;28;20469;-79
2023/02/23 09:13:52;;;;;;;61.33;32.20;;;;;;;;;;4964852;28;20445;-77
2023/02/23 09:16:19;;;;;;;67.90;32.70;;;;;;;;;;4966245;28;20662;-78
2023/02/23 09:18:48;;;;;;;63.80;31.60;;;;;;;;;;4961873;28;20469;-79
2023/02/23 09:21:23;;;;;;;61.63;30.50;;;;;;;;;;4961884;28;20518;-78
2023/02/23 09:23:51;;;;;;;66.60;31.47;;;;;;;;;;4964072;28;20479;-78
2023/02/23 09:26:28;;;;;;;65.30;30.80;;;;;;;;;;4945502;28;20437;-78
2023/02/23 09:29:00;;;;;;;65.57;31.90;;;;;;;;;;4960714;28;20460;-83
2023/02/23 09:31:36;;;;;;;74.83;32.30;;;;;;;;;;4963157;28;20460;-78
2023/02/23 09:34:03;;;;;;;70.53;32.30;;;;;;;;;;4963846;28;20450;-79
2023/02/23 09:36:35;;;;;;;66.10;32.30;;;;;;;;;;4966854;28;20430;-80
2023/02/23 09:39:01;;;;;;;77.90;31.47;;;;;;;;;;4940662;28;20460;-81
2023/02/23 09:41:32;;;;;;;72.67;32.83;;;;;;;;;;4948202;28;20552;-80
2023/02/23 09:44:04;;;;;;;70.43;33.63;;;;;;;;;;4961390;28;20453;-80
2023/02/23 09:46:33;;;;;;;65.07;31.90;;;;;;;;;;4967197;28;20488;-82
2023/02/23 09:49:02;;;;;;;64.53;31.37;;;;;;;;;;4947158;28;20441;-80
2023/02/23 09:51:30;;;;;;;66.20;31.03;;;;;;;;;;4948988;28;20493;-77
2023/02/23 09:53:59;;;;;;;58.43;28.17;;;;;;;;;;4948170;28;20525;-81
2023/02/23 09:56:35;;;;;;;69.80;32.57;;;;;;;;;;4955232;28;20469;-81
2023/02/23 09:59:05;;;;;;;61.37;32.20;;;;;;;;;;4955554;28;20436;-79
2023/02/23 10:01:45;;;;;;;67.30;32.87;;;;;;;;;;4962535;28;20892;-81
2023/02/23 10:04:13;;;;;;;66.17;32.17;;;;;;;;;;4965262;28;20450;-81
2023/02/23 10:06:42;;;;;;;70.17;33.00;;;;;;;;;;4962960;28;20444;-80
2023/02/23 10:09:14;;;;;;;70.33;33.90;;;;;;;;;;4961545;28;21326;-82
2023/02/23 10:11:43;;;;;;;69.90;33.83;;;;;;;;;;4952111;28;20451;-79
2023/02/23 10:14:12;;;;;;;65.40;33.40;;;;;;;;;;4963097;28;20446;-79
2023/02/23 10:17:07;;;;;;;66.70;33.17;;;;;;;;;;4959266;28;20449;-80
2023/02/23 10:19:43;;;;;;;69.43;35.07;;;;;;;;;;4949538;28;20547;-79
2023/02/23 10:22:11;;;;;;;69.30;33.17;;;;;;;;;;4950155;28;20516;-82
2023/02/23 10:24:40;;;;;;;64.77;34.73;;;;;;;;;;4954507;28;20857;-81
2023/02/23 10:27:13;;;;;;;63.63;33.40;;;;;;;;;;4940003;28;20460;-81
2023/02/23 10:29:47;;;;;;;72.13;33.60;;;;;;;;;;4954641;28;20445;-80
2023/02/23 10:32:32;;;;;;;67.90;34.33;;;;;;;;;;4947354;28;20473;-81
2023/02/23 10:34:59;;;;;;;73.27;34.03;;;;;;;;;;4949857;28;20607;-81
2023/02/23 10:37:25;;;;;;;77.17;35.50;;;;;;;;;;4948178;28;20473;-79
2023/02/23 10:39:52;;;;;;;67.87;32.40;;;;;;;;;;4938733;28;21264;-81
2023/02/23 10:42:30;;;;;;;76.13;34.50;;;;;;;;;;4935137;28;20456;-82
2023/02/23 10:44:57;;;;;;;76.80;33.30;;;;;;;;;;4954089;28;20452;-81
2023/02/23 10:47:25;;;;;;;75.80;34.10;;;;;;;;;;4956453;28;20445;-84
2023/02/23 10:49:56;;;;;;;90.37;36.20;;;;;;;;;;4957607;28;20516;-84
2023/02/23 10:52:27;;;;;;;95.27;38.70;;;;;;;;;;4960945;28;20461;-84
2023/02/23 10:54:53;;;;;;;85.87;37.00;;;;;;;;;;4980282;28;20505;-84
2023/02/23 10:57:21;;;;;;;70.70;34.53;;;;;;;;;;4979956;28;20848;-85
2023/02/23 11:00:06;;;;;;;69.90;32.60;;;;;;;;;;4979303;28;20455;-86
2023/02/23 11:02:35;;;;;;;54.10;28.00;;;;;;;;;;4976483;28;20417;-84
2023/02/23 11:05:01;;;;;;;56.27;28.97;;;;;;;;;;4977731;28;20557;-86
2023/02/23 11:07:28;;;;;;;54.60;28.23;;;;;;;;;;4970672;28;20497;-78
2023/02/23 11:10:00;;;;;;;51.03;27.33;;;;;;;;;;4960981;28;20454;-78
2023/02/23 11:12:38;;;;;;;47.87;24.40;;;;;;;;;;4963948;28;20506;-83
2023/02/23 11:15:42;;;;;;;44.80;25.10;;;;;;;;;;4963898;28;20491;-83
2023/02/23 11:18:18;;;;;;;55.10;25.70;;;;;;;;;;4853954;29;20508;-81
2023/02/23 11:20:44;;;;;;;50.67;26.30;;;;;;;;;;4950653;28;20866;-81
2023/02/23 11:23:11;;;;;;;53.73;28.50;;;;;;;;;;4945305;28;20429;-79
2023/02/23 11:25:42;;;;;;;54.20;28.33;;;;;;;;;;4959983;28;20445;-78
2023/02/23 11:28:16;;;;;;;58.60;28.70;;;;;;;;;;4962686;28;20421;-78
2023/02/23 11:30:43;;;;;;;49.33;24.17;;;;;;;;;;4962150;28;20472;-80
2023/02/23 11:33:15;;;;;;;51.83;24.80;;;;;;;;;;4965145;28;21102;-78
2023/02/23 11:35:41;;;;;;;44.13;23.93;;;;;;;;;;4964248;28;20551;-81
2023/02/23 11:38:22;;;;;;;42.80;25.13;;;;;;;;;;4947948;28;20426;-82
2023/02/23 11:40:59;;;;;;;41.93;23.60;;;;;;;;;;4965559;28;20461;-87
2023/02/23 11:43:26;;;;;;;41.77;25.10;;;;;;;;;;4969201;28;20429;-82
2023/02/23 11:45:54;;;;;;;42.33;23.10;;;;;;;;;;4961255;28;20460;-84
2023/02/23 11:48:25;;;;;;;49.10;26.67;;;;;;;;;;4957912;28;20429;-83
2023/02/23 11:50:55;;;;;;;54.10;29.30;;;;;;;;;;4972004;28;20962;-82
2023/02/23 11:53:40;;;;;;;60.40;30.37;;;;;;;;;;4981198;28;20429;-83
2023/02/23 11:56:09;;;;;;;66.13;33.17;;;;;;;;;;4969257;28;20456;-82
2023/02/23 11:58:41;;;;;;;73.43;36.93;;;;;;;;;;4965052;28;20807;-82
2023/02/23 12:01:12;;;;;;;70.23;33.13;;;;;;;;;;4950106;28;20454;-81
2023/02/23 12:04:05;;;;;;;63.33;34.07;;;;;;;;;;4966062;28;20520;-81
2023/02/23 12:06:35;;;;;;;68.77;33.37;;;;;;;;;;4955742;28;20482;-81
2023/02/23 12:09:11;;;;;;;64.80;30.97;;;;;;;;;;4940018;28;20469;-82
2023/02/23 12:11:40;;;;;;;56.37;30.20;;;;;;;;;;4964727;28;20433;-80
2023/02/23 12:14:22;;;;;;;56.57;27.30;;;;;;;;;;4943198;28;20441;-81
2023/02/23 12:16:50;;;;;;;58.37;29.00;;;;;;;;;;4963308;28;20445;-81
2023/02/23 12:19:25;;;;;;;46.87;25.67;;;;;;;;;;4964443;28;20492;-81
2023/02/23 12:22:03;;;;;;;45.57;23.57;;;;;;;;;;4967548;28;20448;-80
2023/02/23 12:24:43;;;;;;;45.10;24.10;;;;;;;;;;4970854;28;20890;-82
2023/02/23 12:27:11;;;;;;;40.47;22.47;;;;;;;;;;4967792;28;20417;-81
2023/02/23 12:29:52;;;;;;;34.40;20.80;;;;;;;;;;4963574;28;20480;-81
2023/02/23 12:32:21;;;;;;;35.77;19.43;;;;;;;;;;4973706;28;20433;-80
2023/02/23 12:35:01;;;;;;;33.77;18.50;;;;;;;;;;4948344;28;20464;-82
2023/02/23 12:37:31;;;;;;;39.00;22.60;;;;;;;;;;4966231;28;20436;-81
2023/02/23 12:40:17;;;;;;;36.37;19.60;;;;;;;;;;4956645;28;20470;-81
2023/02/23 12:42:57;;;;;;;35.13;20.23;;;;;;;;;;4933902;28;20595;-80
2023/02/23 12:45:44;;;;;;;31.57;20.70;;;;;;;;;;4968792;28;22143;-81
2023/02/23 12:48:30;;;;;;;35.03;21.07;;;;;;;;;;4975152;28;20436;-80
2023/02/23 12:50:57;;;;;;;34.23;23.00;;;;;;;;;;4962809;28;20448;-78
2023/02/23 12:53:35;;;;;;;28.57;18.50;;;;;;;;;;4964076;28;20824;-81
2023/02/23 12:56:11;;;;;;;33.83;20.30;;;;;;;;;;4981262;28;20452;-80
2023/02/23 12:58:41;;;;;;;35.87;18.93;;;;;;;;;;4981667;28;20428;-82
2023/02/23 13:01:45;;;;;;;34.73;19.10;;;;;;;;;;4949696;28;20481;-82
2023/02/23 13:04:18;;;;;;;31.70;17.43;;;;;;;;;;4872068;29;20481;-79
2023/02/23 13:06:50;;;;;;;27.80;15.60;;;;;;;;;;4880314;29;20473;-82
2023/02/23 13:09:24;;;;;;;27.57;15.50;;;;;;;;;;4923027;28;20484;-80
2023/02/23 13:11:57;;;;;;;26.90;15.83;;;;;;;;;;4977628;28;20444;-82
2023/02/23 13:14:23;;;;;;;29.07;17.43;;;;;;;;;;4972436;28;20467;-84
2023/02/23 13:16:55;;;;;;;29.13;17.30;;;;;;;;;;4974645;28;20502;-81
2023/02/23 13:19:44;;;;;;;32.63;18.73;;;;;;;;;;4952237;28;20469;-82
2023/02/23 13:22:33;;;;;;;32.07;15.97;;;;;;;;;;4967079;28;20459;-82
2023/02/23 13:25:01;;;;;;;25.93;16.20;;;;;;;;;;4968589;28;20441;-82
2023/02/23 13:27:35;;;;;;;30.23;15.63;;;;;;;;;;4968799;28;20437;-79
2023/02/23 13:30:01;;;;;;;26.70;17.27;;;;;;;;;;4968681;28;20503;-85
2023/02/23 13:32:35;;;;;;;26.73;18.13;;;;;;;;;;4965674;28;20491;-83
2023/02/23 13:35:02;;;;;;;27.70;15.57;;;;;;;;;;4965112;28;20438;-84
2023/02/23 13:37:33;;;;;;;26.70;15.70;;;;;;;;;;4971875;28;20476;-83
2023/02/23 13:39:59;;;;;;;30.50;18.70;;;;;;;;;;4949777;28;20483;-81
2023/02/23 13:42:26;;;;;;;27.13;17.20;;;;;;;;;;4958064;28;20784;-82
2023/02/23 13:44:52;;;;;;;26.87;15.03;;;;;;;;;;4964256;28;20607;-80
2023/02/23 13:47:39;;;;;;;78.23;51.27;;;;;;;;;;4962431;28;20949;-83
2023/02/23 13:50:05;;;;;;;30.40;16.70;;;;;;;;;;4955738;28;20425;-80
2023/02/23 13:52:32;;;;;;;22.03;13.83;;;;;;;;;;4960634;28;20499;-81
2023/02/23 13:55:02;;;;;;;25.30;14.23;;;;;;;;;;4962672;28;20491;-81
2023/02/23 13:57:29;;;;;;;21.30;14.33;;;;;;;;;;4960505;28;20543;-81
2023/02/23 13:59:55;;;;;;;23.37;14.87;;;;;;;;;;4991970;23;20528;-83
2023/02/23 14:02:22;;;;;;;24.47;14.07;;;;;;;;;;4987440;28;20512;-84
2023/02/23 14:04:49;;;;;;;19.40;13.80;;;;;;;;;;4984413;28;21147;-84
2023/02/23 14:07:23;;;;;;;21.83;13.10;;;;;;;;;;4980859;28;20830;-82
2023/02/23 14:09:54;;;;;;;22.07;13.83;;;;;;;;;;4978371;28;20444;-82
2023/02/23 14:12:24;;;;;;;17.60;11.93;;;;;;;;;;4969526;28;20843;-79
2023/02/23 14:14:51;;;;;;;14.73;11.10;;;;;;;;;;4961798;28;21094;-78
2023/02/23 14:17:18;;;;;;;19.40;13.10;;;;;;;;;;4965835;28;20445;-79
2023/02/23 14:19:50;;;;;;;17.13;12.40;;;;;;;;;;4959972;28;20479;-81
2023/02/23 14:22:20;;;;;;;19.83;12.83;;;;;;;;;;4964072;28;20409;-79
2023/02/23 14:24:46;;;;;;;20.70;13.37;;;;;;;;;;4944540;28;20786;-79
2023/02/23 14:27:19;;;;;;;21.10;12.63;;;;;;;;;;4964082;28;20419;-79
2023/02/23 14:30:05;;;;;;;19.90;12.40;;;;;;;;;;4958578;28;20569;-79
2023/02/23 14:32:31;;;;;;;17.77;11.60;;;;;;;;;;4951058;28;20449;-78
2023/02/23 14:34:59;;;;;;;20.80;12.17;;;;;;;;;;4955875;28;20535;-78
2023/02/23 14:37:35;;;;;;;17.30;11.67;;;;;;;;;;4959521;28;20471;-81
2023/02/23 14:40:07;;;;;;;16.70;10.97;;;;;;;;;;4962404;28;20495;-82
2023/02/23 14:42:34;;;;;;;16.77;12.20;;;;;;;;;;4961632;28;20748;-81
2023/02/23 14:45:04;;;;;;;20.43;11.57;;;;;;;;;;4950709;28;20508;-83
2023/02/23 14:47:40;;;;;;;18.60;11.87;;;;;;;;;;4965913;28;20458;-80
2023/02/23 14:50:14;;;;;;;17.00;11.00;;;;;;;;;;4968069;28;20799;-81
2023/02/23 14:52:41;;;;;;;22.60;11.93;;;;;;;;;;4959031;28;20496;-81
2023/02/23 14:55:07;;;;;;;18.87;11.57;;;;;;;;;;4937603;28;20438;-82
2023/02/23 14:57:35;;;;;;;22.27;12.37;;;;;;;;;;4941945;28;20465;-81
2023/02/23 15:00:04;;;;;;;27.27;13.33;;;;;;;;;;4954930;28;21162;-83
2023/02/23 15:02:30;;;;;;;19.40;12.90;;;;;;;;;;4939678;28;20521;-79
2023/02/23 15:04:56;;;;;;;20.60;12.53;;;;;;;;;;4973441;28;20457;-79
2023/02/23 15:07:34;;;;;;;23.83;12.33;;;;;;;;;;4970475;28;20477;-79
2023/02/23 15:10:01;;;;;;;28.30;13.23;;;;;;;;;;4958132;28;20545;-82
2023/02/23 15:12:29;;;;;;;21.13;12.90;;;;;;;;;;4952241;28;20450;-80
2023/02/23 15:14:56;;;;;;;23.13;12.63;;;;;;;;;;4956066;28;20430;-82
2023/02/23 15:17:24;;;;;;;18.63;12.47;;;;;;;;;;4957132;28;20429;-82
2023/02/23 15:19:54;;;;;;;26.87;14.10;;;;;;;;;;4950293;28;20465;-80
2023/02/23 15:22:25;;;;;;;23.77;13.80;;;;;;;;;;4959848;28;20497;-82
2023/02/23 15:24:52;;;;;;;22.10;13.73;;;;;;;;;;4946820;28;20440;-84
2023/02/23 15:27:21;;;;;;;28.30;14.37;;;;;;;;;;4957382;28;20445;-84
2023/02/23 15:29:47;;;;;;;28.37;14.00;;;;;;;;;;4968241;28;20418;-83
2023/02/23 15:32:27;;;;;;;25.20;14.10;;;;;;;;;;4957443;28;21009;-80
2023/02/23 15:35:02;;;;;;;21.73;13.37;;;;;;;;;;4959108;28;20426;-83
2023/02/23 15:37:28;;;;;;;27.33;15.83;;;;;;;;;;4939989;28;20453;-81
2023/02/23 15:40:02;;;;;;;26.70;13.27;;;;;;;;;;4939383;28;20485;-82
2023/02/23 15:42:37;;;;;;;26.03;15.17;;;;;;;;;;4953786;28;20580;-82
2023/02/23 15:45:07;;;;;;;23.80;13.70;;;;;;;;;;4961262;28;20468;-82
2023/02/23 15:47:36;;;;;;;28.53;15.40;;;;;;;;;;4941984;28;20517;-83
2023/02/23 15:50:14;;;;;;;26.67;15.57;;;;;;;;;;4946697;28;20456;-77